sensor_id;sensor_type;location;lat;lon;timestamp;temperature;humidity
36186;DHT22;22228;53.222;7.446;2023-07-31T00:00:39;16.00;99.90
36186;DHT22;22228;53.222;7.446;2023-07-31T00:02:59;16.00;99.90
36186;DHT22;22228;53.222;7.446;2023-07-31T00:05:20;15.90;99.90
36186;DHT22;22228;53.222;7.446;2023-07-31T00:07:40;15.90;99.90
36186;DHT22;22228;53.222;7.446;2023-07-31T00:10:01;15.90;99.90
36186;DHT22;22228;53.222;7.446;2023-07-31T00:12:23;15.90;99.90
36186;DHT22;22228;53.222;7.446;2023-07-31T00:14:43;15.90;99.90
36186;DHT22;22228;53.222;7.446;2023-07-31T03:01:05;14.90;99.90
36186;DHT22;22228;53.222;7.446;2023-07-31T03:03:25;14.90;99.90
36186;DHT22;22228;53.222;7.446;2023-07-31T03:05:46;14.90;99.90
36186;DHT22;22228;53.222;7.446;2023-07-31T03:08:07;14.90;99.90
36186;DHT22;22228;53.222;7.446;2023-07-31T03:10:28;14.80;99.90
36186;DHT22;22228;53.222;7.446;2023-07-31T03:12:48;14.90;99.90
36186;DHT22;22228;53.222;7.446;2023-07-31T03:15:10;14.90;99.90
36186;DHT22;22228;53.222;7.446;2023-07-31T03:17:31;14.90;99.90
36186;DHT22;22228;53.222;7.446;2023-07-31T03:19:52;14.90;99.90
36186;DHT22;22228;53.222;7.446;2023-07-31T03:22:12;14.90;99.90
36186;DHT22;22228;53.222;7.446;2023-07-31T03:24:32;14.90;99.90
36186;DHT22;22228;53.222;7.446;2023-07-31T03:26:53;14.90;99.90
36186;DHT22;22228;53.222;7.446;2023-07-31T03:29:13;14.90;99.90
36186;DHT22;22228;53.222;7.446;2023-07-31T03:31:34;14.90;99.90
36186;DHT22;22228;53.222;7.446;2023-07-31T03:33:56;14.90;99.90
36186;DHT22;22228;53.222;7.446;2023-07-31T03:36:16;14.90;99.90
36186;DHT22;22228;53.222;7.446;2023-07-31T03:38:37;14.90;99.90
36186;DHT22;22228;53.222;7.446;2023-07-31T03:40:57;14.90;99.90
36186;DHT22;22228;53.222;7.446;2023-07-31T03:43:19;14.90;99.90
36186;DHT22;22228;53.222;7.446;2023-07-31T03:45:39;14.90;99.90
36186;DHT22;22228;53.222;7.446;2023-07-31T03:48:00;14.90;99.90
36186;DHT22;22228;53.222;7.446;2023-07-31T03:50:22;14.90;99.90
36186;DHT22;22228;53.222;7.446;2023-07-31T03:52:44;14.90;99.90
36186;DHT22;22228;53.222;7.446;2023-07-31T03:55:05;15.00;99.90
36186;DHT22;22228;53.222;7.446;2023-07-31T03:57:25;15.00;99.90
36186;DHT22;22228;53.222;7.446;2023-07-31T03:59:46;14.90;99.90
36186;DHT22;22228;53.222;7.446;2023-07-31T04:02:06;15.00;99.90
36186;DHT22;22228;53.222;7.446;2023-07-31T04:04:27;14.90;99.90
36186;DHT22;22228;53.222;7.446;2023-07-31T04:06:48;14.90;99.90
36186;DHT22;22228;53.222;7.446;2023-07-31T04:09:09;14.90;99.90
36186;DHT22;22228;53.222;7.446;2023-07-31T04:11:29;15.00;99.90
36186;DHT22;22228;53.222;7.446;2023-07-31T04:13:50;15.00;99.90
36186;DHT22;22228;53.222;7.446;2023-07-31T04:16:10;14.90;99.90
36186;DHT22;22228;53.222;7.446;2023-07-31T04:18:31;15.00;99.90
36186;DHT22;22228;53.222;7.446;2023-07-31T04:20:51;15.00;99.90
36186;DHT22;22228;53.222;7.446;2023-07-31T04:23:13;15.00;99.90
36186;DHT22;22228;53.222;7.446;2023-07-31T04:25:33;15.00;99.90
36186;DHT22;22228;53.222;7.446;2023-07-31T04:27:54;15.00;99.90
36186;DHT22;22228;53.222;7.446;2023-07-31T04:30:15;15.00;99.90
36186;DHT22;22228;53.222;7.446;2023-07-31T04:32:35;15.00;99.90
36186;DHT22;22228;53.222;7.446;2023-07-31T04:34:56;15.00;99.90
36186;DHT22;22228;53.222;7.446;2023-07-31T04:37:16;15.00;99.90
36186;DHT22;22228;53.222;7.446;2023-07-31T04:39:39;15.10;99.90
36186;DHT22;22228;53.222;7.446;2023-07-31T04:42:00;15.10;99.90
36186;DHT22;22228;53.222;7.446;2023-07-31T04:44:20;15.10;99.90
36186;DHT22;22228;53.222;7.446;2023-07-31T04:46:41;15.10;99.90
36186;DHT22;22228;53.222;7.446;2023-07-31T04:49:01;15.10;99.90
36186;DHT22;22228;53.222;7.446;2023-07-31T04:51:22;15.10;99.90
36186;DHT22;22228;53.222;7.446;2023-07-31T04:53:42;15.10;99.90
36186;DHT22;22228;53.222;7.446;2023-07-31T04:56:04;15.10;99.90
36186;DHT22;22228;53.222;7.446;2023-07-31T04:58:24;15.20;99.90
36186;DHT22;22228;53.222;7.446;2023-07-31T05:00:45;15.20;99.90
36186;DHT22;22228;53.222;7.446;2023-07-31T05:03:05;15.20;99.90
36186;DHT22;22228;53.222;7.446;2023-07-31T05:05:26;15.20;99.90
36186;DHT22;22228;53.222;7.446;2023-07-31T05:07:46;15.30;99.90
36186;DHT22;22228;53.222;7.446;2023-07-31T05:10:08;15.30;99.90
36186;DHT22;22228;53.222;7.446;2023-07-31T05:12:29;15.30;99.90
36186;DHT22;22228;53.222;7.446;2023-07-31T05:14:50;15.30;99.90
36186;DHT22;22228;53.222;7.446;2023-07-31T05:17:11;15.20;99.90
36186;DHT22;22228;53.222;7.446;2023-07-31T05:19:31;15.30;99.90
36186;DHT22;22228;53.222;7.446;2023-07-31T05:21:52;15.30;99.90
36186;DHT22;22228;53.222;7.446;2023-07-31T05:24:13;15.30;99.90
36186;DHT22;22228;53.222;7.446;2023-07-31T05:26:33;15.30;99.90
36186;DHT22;22228;53.222;7.446;2023-07-31T05:28:55;15.30;99.90
36186;DHT22;22228;53.222;7.446;2023-07-31T05:31:17;15.30;99.90
36186;DHT22;22228;53.222;7.446;2023-07-31T05:33:37;15.30;99.90
36186;DHT22;22228;53.222;7.446;2023-07-31T05:35:58;15.40;99.90
36186;DHT22;22228;53.222;7.446;2023-07-31T05:38:19;15.40;99.90
36186;DHT22;22228;53.222;7.446;2023-07-31T05:40:39;15.40;99.90
36186;DHT22;22228;53.222;7.446;2023-07-31T05:43:00;15.40;99.90
36186;DHT22;22228;53.222;7.446;2023-07-31T05:45:22;15.40;99.90
36186;DHT22;22228;53.222;7.446;2023-07-31T05:47:42;15.40;99.90
36186;DHT22;22228;53.222;7.446;2023-07-31T05:50:03;15.40;99.90
36186;DHT22;22228;53.222;7.446;2023-07-31T05:52:24;15.50;99.90
36186;DHT22;22228;53.222;7.446;2023-07-31T05:54:44;15.50;99.90
36186;DHT22;22228;53.222;7.446;2023-07-31T05:57:06;15.50;99.90
36186;DHT22;22228;53.222;7.446;2023-07-31T05:59:26;15.60;99.90
36186;DHT22;22228;53.222;7.446;2023-07-31T06:01:48;15.60;99.90
36186;DHT22;22228;53.222;7.446;2023-07-31T06:04:08;15.60;99.90
36186;DHT22;22228;53.222;7.446;2023-07-31T06:06:29;15.60;99.90
36186;DHT22;22228;53.222;7.446;2023-07-31T06:08:50;15.60;99.90
36186;DHT22;22228;53.222;7.446;2023-07-31T06:11:10;15.60;99.90
36186;DHT22;22228;53.222;7.446;2023-07-31T06:13:31;15.70;99.90
36186;DHT22;22228;53.222;7.446;2023-07-31T06:15:52;15.60;99.90
36186;DHT22;22228;53.222;7.446;2023-07-31T06:18:13;15.60;99.90
36186;DHT22;22228;53.222;7.446;2023-07-31T06:20:34;15.70;99.90
36186;DHT22;22228;53.222;7.446;2023-07-31T06:22:55;15.80;99.90
36186;DHT22;22228;53.222;7.446;2023-07-31T06:25:15;15.80;99.90
36186;DHT22;22228;53.222;7.446;2023-07-31T06:27:36;15.80;99.90
36186;DHT22;22228;53.222;7.446;2023-07-31T06:29:56;15.80;99.90
36186;DHT22;22228;53.222;7.446;2023-07-31T06:32:17;15.80;99.90
36186;DHT22;22228;53.222;7.446;2023-07-31T06:34:39;15.80;99.90
36186;DHT22;22228;53.222;7.446;2023-07-31T06:36:59;15.80;99.90
36186;DHT22;22228;53.222;7.446;2023-07-31T06:39:20;15.80;99.90
36186;DHT22;22228;53.222;7.446;2023-07-31T06:41:41;15.80;99.90
36186;DHT22;22228;53.222;7.446;2023-07-31T06:44:03;15.90;99.90
36186;DHT22;22228;53.222;7.446;2023-07-31T06:46:24;15.90;99.90
36186;DHT22;22228;53.222;7.446;2023-07-31T06:48:44;15.90;99.90
36186;DHT22;22228;53.222;7.446;2023-07-31T06:51:06;15.90;99.90
36186;DHT22;22228;53.222;7.446;2023-07-31T06:53:27;15.90;99.90
36186;DHT22;22228;53.222;7.446;2023-07-31T06:55:48;15.90;99.90
36186;DHT22;22228;53.222;7.446;2023-07-31T06:58:10;15.90;99.90
36186;DHT22;22228;53.222;7.446;2023-07-31T07:00:31;16.00;99.90
36186;DHT22;22228;53.222;7.446;2023-07-31T07:02:52;16.00;99.90
36186;DHT22;22228;53.222;7.446;2023-07-31T07:05:13;16.00;99.90
36186;DHT22;22228;53.222;7.446;2023-07-31T07:07:34;16.00;99.90
36186;DHT22;22228;53.222;7.446;2023-07-31T07:09:55;16.00;99.90
36186;DHT22;22228;53.222;7.446;2023-07-31T07:12:15;16.00;99.90
36186;DHT22;22228;53.222;7.446;2023-07-31T07:14:36;16.10;99.90
36186;DHT22;22228;53.222;7.446;2023-07-31T07:16:56;16.10;99.90
36186;DHT22;22228;53.222;7.446;2023-07-31T07:19:21;16.10;99.90
36186;DHT22;22228;53.222;7.446;2023-07-31T07:21:42;16.10;99.90
36186;DHT22;22228;53.222;7.446;2023-07-31T07:24:04;16.20;99.90
36186;DHT22;22228;53.222;7.446;2023-07-31T07:26:25;16.30;99.90
36186;DHT22;22228;53.222;7.446;2023-07-31T07:28:45;16.30;99.90
36186;DHT22;22228;53.222;7.446;2023-07-31T07:31:06;16.40;99.90
36186;DHT22;22228;53.222;7.446;2023-07-31T07:33:26;16.40;99.90
36186;DHT22;22228;53.222;7.446;2023-07-31T07:35:47;16.50;99.90
36186;DHT22;22228;53.222;7.446;2023-07-31T07:38:07;16.60;99.90
36186;DHT22;22228;53.222;7.446;2023-07-31T07:40:29;16.60;99.90
36186;DHT22;22228;53.222;7.446;2023-07-31T07:42:50;16.70;99.90
36186;DHT22;22228;53.222;7.446;2023-07-31T07:45:11;16.60;99.90
36186;DHT22;22228;53.222;7.446;2023-07-31T07:47:31;16.70;99.90
36186;DHT22;22228;53.222;7.446;2023-07-31T07:49:52;16.70;99.90
36186;DHT22;22228;53.222;7.446;2023-07-31T07:52:13;16.70;99.90
36186;DHT22;22228;53.222;7.446;2023-07-31T07:54:33;16.80;99.90
36186;DHT22;22228;53.222;7.446;2023-07-31T07:56:55;16.80;99.90
36186;DHT22;22228;53.222;7.446;2023-07-31T07:59:15;16.80;99.90
36186;DHT22;22228;53.222;7.446;2023-07-31T08:01:36;16.70;99.90
36186;DHT22;22228;53.222;7.446;2023-07-31T08:03:57;16.70;99.90
36186;DHT22;22228;53.222;7.446;2023-07-31T08:06:18;16.70;99.90
36186;DHT22;22228;53.222;7.446;2023-07-31T08:08:38;16.70;99.90
36186;DHT22;22228;53.222;7.446;2023-07-31T08:10:59;16.70;99.90
36186;DHT22;22228;53.222;7.446;2023-07-31T08:13:21;16.60;99.90
36186;DHT22;22228;53.222;7.446;2023-07-31T08:15:42;16.50;99.90
36186;DHT22;22228;53.222;7.446;2023-07-31T08:18:02;16.50;99.90
36186;DHT22;22228;53.222;7.446;2023-07-31T08:20:23;16.60;99.90
36186;DHT22;22228;53.222;7.446;2023-07-31T08:22:43;16.70;99.90
36186;DHT22;22228;53.222;7.446;2023-07-31T08:25:05;16.80;99.90
36186;DHT22;22228;53.222;7.446;2023-07-31T08:27:25;16.80;99.90
36186;DHT22;22228;53.222;7.446;2023-07-31T08:29:47;16.90;99.90
36186;DHT22;22228;53.222;7.446;2023-07-31T08:32:08;16.90;99.90
36186;DHT22;22228;53.222;7.446;2023-07-31T08:34:28;16.90;99.90
36186;DHT22;22228;53.222;7.446;2023-07-31T08:36:49;16.90;99.90
36186;DHT22;22228;53.222;7.446;2023-07-31T08:39:10;16.90;99.90
36186;DHT22;22228;53.222;7.446;2023-07-31T08:41:30;16.80;99.90
36186;DHT22;22228;53.222;7.446;2023-07-31T08:43:55;16.90;99.90
36186;DHT22;22228;53.222;7.446;2023-07-31T08:46:21;16.90;99.90
36186;DHT22;22228;53.222;7.446;2023-07-31T08:48:42;17.00;99.90
36186;DHT22;22228;53.222;7.446;2023-07-31T08:51:04;16.90;99.90
36186;DHT22;22228;53.222;7.446;2023-07-31T08:53:24;16.90;99.90
36186;DHT22;22228;53.222;7.446;2023-07-31T08:55:46;16.90;99.90
36186;DHT22;22228;53.222;7.446;2023-07-31T08:58:12;16.90;99.90
36186;DHT22;22228;53.222;7.446;2023-07-31T09:00:36;16.90;99.90
36186;DHT22;22228;53.222;7.446;2023-07-31T09:03:01;17.00;99.90
36186;DHT22;22228;53.222;7.446;2023-07-31T09:05:23;17.00;99.90
36186;DHT22;22228;53.222;7.446;2023-07-31T09:07:45;17.10;99.90
36186;DHT22;22228;53.222;7.446;2023-07-31T09:10:07;17.10;99.90
36186;DHT22;22228;53.222;7.446;2023-07-31T09:12:28;17.00;99.90
36186;DHT22;22228;53.222;7.446;2023-07-31T09:14:48;17.00;99.90
36186;DHT22;22228;53.222;7.446;2023-07-31T09:17:08;17.10;99.90
36186;DHT22;22228;53.222;7.446;2023-07-31T09:19:33;17.00;99.90
36186;DHT22;22228;53.222;7.446;2023-07-31T09:21:55;17.00;99.90
36186;DHT22;22228;53.222;7.446;2023-07-31T09:24:25;17.10;99.90
36186;DHT22;22228;53.222;7.446;2023-07-31T09:26:45;17.10;99.90
36186;DHT22;22228;53.222;7.446;2023-07-31T09:29:07;17.20;99.90
36186;DHT22;22228;53.222;7.446;2023-07-31T09:31:39;17.10;99.90
36186;DHT22;22228;53.222;7.446;2023-07-31T09:34:00;17.20;99.90
36186;DHT22;22228;53.222;7.446;2023-07-31T09:36:22;17.20;99.90
36186;DHT22;22228;53.222;7.446;2023-07-31T09:38:43;17.20;99.90
36186;DHT22;22228;53.222;7.446;2023-07-31T09:41:05;17.30;99.90
36186;DHT22;22228;53.222;7.446;2023-07-31T09:43:27;17.30;99.90
36186;DHT22;22228;53.222;7.446;2023-07-31T09:45:48;17.30;99.90
36186;DHT22;22228;53.222;7.446;2023-07-31T09:48:10;17.30;99.90
36186;DHT22;22228;53.222;7.446;2023-07-31T09:50:30;17.30;99.90
36186;DHT22;22228;53.222;7.446;2023-07-31T09:52:57;17.30;99.90
36186;DHT22;22228;53.222;7.446;2023-07-31T09:55:18;17.40;99.90
36186;DHT22;22228;53.222;7.446;2023-07-31T09:57:41;17.40;99.90
36186;DHT22;22228;53.222;7.446;2023-07-31T10:00:02;17.50;99.90
36186;DHT22;22228;53.222;7.446;2023-07-31T10:02:32;17.50;99.90
36186;DHT22;22228;53.222;7.446;2023-07-31T10:05:06;17.50;99.90
36186;DHT22;22228;53.222;7.446;2023-07-31T10:07:30;17.60;99.90
36186;DHT22;22228;53.222;7.446;2023-07-31T10:09:53;17.60;99.90
36186;DHT22;22228;53.222;7.446;2023-07-31T10:12:16;17.60;99.90
36186;DHT22;22228;53.222;7.446;2023-07-31T10:14:40;17.60;99.90
36186;DHT22;22228;53.222;7.446;2023-07-31T10:17:02;17.60;99.90
36186;DHT22;22228;53.222;7.446;2023-07-31T10:19:23;17.60;99.90
36186;DHT22;22228;53.222;7.446;2023-07-31T10:21:45;17.60;99.90
36186;DHT22;22228;53.222;7.446;2023-07-31T10:24:07;17.60;99.90
36186;DHT22;22228;53.222;7.446;2023-07-31T10:26:31;17.60;99.90
36186;DHT22;22228;53.222;7.446;2023-07-31T10:28:52;17.60;99.90
36186;DHT22;22228;53.222;7.446;2023-07-31T10:31:13;17.70;99.90
36186;DHT22;22228;53.222;7.446;2023-07-31T10:33:34;17.80;99.90
36186;DHT22;22228;53.222;7.446;2023-07-31T10:36:14;17.80;99.90
36186;DHT22;22228;53.222;7.446;2023-07-31T10:38:35;18.00;99.90
36186;DHT22;22228;53.222;7.446;2023-07-31T10:41:07;18.00;99.90
36186;DHT22;22228;53.222;7.446;2023-07-31T10:43:29;18.00;99.90
36186;DHT22;22228;53.222;7.446;2023-07-31T10:45:53;18.10;99.90
36186;DHT22;22228;53.222;7.446;2023-07-31T10:48:14;18.10;99.90
36186;DHT22;22228;53.222;7.446;2023-07-31T10:50:38;18.10;99.90
36186;DHT22;22228;53.222;7.446;2023-07-31T10:52:58;18.10;99.90
36186;DHT22;22228;53.222;7.446;2023-07-31T10:55:28;18.10;99.90
36186;DHT22;22228;53.222;7.446;2023-07-31T10:57:50;18.20;99.90
36186;DHT22;22228;53.222;7.446;2023-07-31T11:00:20;18.40;99.90
36186;DHT22;22228;53.222;7.446;2023-07-31T11:02:41;18.40;99.90
36186;DHT22;22228;53.222;7.446;2023-07-31T11:05:15;18.60;99.90
36186;DHT22;22228;53.222;7.446;2023-07-31T11:07:46;18.60;99.90
36186;DHT22;22228;53.222;7.446;2023-07-31T11:10:07;18.70;99.90
36186;DHT22;22228;53.222;7.446;2023-07-31T11:12:30;18.70;99.90
36186;DHT22;22228;53.222;7.446;2023-07-31T11:14:54;18.70;99.90
36186;DHT22;22228;53.222;7.446;2023-07-31T11:17:16;18.70;99.90
36186;DHT22;22228;53.222;7.446;2023-07-31T11:19:37;18.70;99.90
36186;DHT22;22228;53.222;7.446;2023-07-31T11:21:58;18.70;99.90
36186;DHT22;22228;53.222;7.446;2023-07-31T11:24:19;18.70;99.90
36186;DHT22;22228;53.222;7.446;2023-07-31T11:26:48;18.60;99.90
36186;DHT22;22228;53.222;7.446;2023-07-31T11:29:11;18.50;99.90
36186;DHT22;22228;53.222;7.446;2023-07-31T11:31:31;18.50;99.90
36186;DHT22;22228;53.222;7.446;2023-07-31T11:34:06;18.40;99.90
36186;DHT22;22228;53.222;7.446;2023-07-31T11:36:27;18.40;99.90
36186;DHT22;22228;53.222;7.446;2023-07-31T11:38:47;18.40;99.90
36186;DHT22;22228;53.222;7.446;2023-07-31T11:41:08;18.30;99.90
36186;DHT22;22228;53.222;7.446;2023-07-31T11:43:29;18.30;99.90
36186;DHT22;22228;53.222;7.446;2023-07-31T11:45:52;18.30;99.90
36186;DHT22;22228;53.222;7.446;2023-07-31T11:48:19;18.30;99.90
36186;DHT22;22228;53.222;7.446;2023-07-31T11:50:41;18.40;99.90
36186;DHT22;22228;53.222;7.446;2023-07-31T11:53:04;18.40;99.90
36186;DHT22;22228;53.222;7.446;2023-07-31T11:55:28;18.40;99.90
36186;DHT22;22228;53.222;7.446;2023-07-31T11:57:49;18.50;99.90
36186;DHT22;22228;53.222;7.446;2023-07-31T12:00:11;18.50;99.90
36186;DHT22;22228;53.222;7.446;2023-07-31T12:02:34;18.50;99.90
36186;DHT22;22228;53.222;7.446;2023-07-31T12:04:58;18.40;99.90
36186;DHT22;22228;53.222;7.446;2023-07-31T12:07:27;18.50;99.90
36186;DHT22;22228;53.222;7.446;2023-07-31T12:09:52;18.50;99.90
36186;DHT22;22228;53.222;7.446;2023-07-31T12:12:19;18.50;99.90
36186;DHT22;22228;53.222;7.446;2023-07-31T12:14:41;18.50;99.90
36186;DHT22;22228;53.222;7.446;2023-07-31T12:17:04;18.40;99.90
36186;DHT22;22228;53.222;7.446;2023-07-31T12:19:26;18.40;99.90
36186;DHT22;22228;53.222;7.446;2023-07-31T12:21:49;18.40;99.90
36186;DHT22;22228;53.222;7.446;2023-07-31T12:24:11;18.40;99.90
36186;DHT22;22228;53.222;7.446;2023-07-31T12:26:37;18.40;99.90
36186;DHT22;22228;53.222;7.446;2023-07-31T12:29:02;18.40;99.90
36186;DHT22;22228;53.222;7.446;2023-07-31T12:31:29;18.50;99.90
36186;DHT22;22228;53.222;7.446;2023-07-31T12:33:54;18.50;99.90
36186;DHT22;22228;53.222;7.446;2023-07-31T12:36:17;18.60;99.90
36186;DHT22;22228;53.222;7.446;2023-07-31T12:38:41;18.70;99.90
36186;DHT22;22228;53.222;7.446;2023-07-31T12:41:04;18.60;99.90
36186;DHT22;22228;53.222;7.446;2023-07-31T12:43:26;18.70;99.90
36186;DHT22;22228;53.222;7.446;2023-07-31T12:45:46;18.70;99.90
36186;DHT22;22228;53.222;7.446;2023-07-31T12:48:07;18.80;99.90
36186;DHT22;22228;53.222;7.446;2023-07-31T12:50:30;18.90;99.90
36186;DHT22;22228;53.222;7.446;2023-07-31T12:52:50;19.00;99.90
36186;DHT22;22228;53.222;7.446;2023-07-31T12:55:11;19.10;99.90
36186;DHT22;22228;53.222;7.446;2023-07-31T12:57:36;19.10;99.90
36186;DHT22;22228;53.222;7.446;2023-07-31T12:59:57;19.00;99.90
36186;DHT22;22228;53.222;7.446;2023-07-31T13:02:18;19.00;99.90
36186;DHT22;22228;53.222;7.446;2023-07-31T13:04:39;19.00;99.90
36186;DHT22;22228;53.222;7.446;2023-07-31T13:07:00;19.00;99.90
36186;DHT22;22228;53.222;7.446;2023-07-31T13:09:20;19.00;99.90
36186;DHT22;22228;53.222;7.446;2023-07-31T13:11:41;18.90;99.90
36186;DHT22;22228;53.222;7.446;2023-07-31T13:14:03;19.00;99.90
36186;DHT22;22228;53.222;7.446;2023-07-31T13:16:23;19.00;99.90
36186;DHT22;22228;53.222;7.446;2023-07-31T13:18:44;19.00;99.90
36186;DHT22;22228;53.222;7.446;2023-07-31T13:21:04;18.90;99.90
36186;DHT22;22228;53.222;7.446;2023-07-31T13:23:25;18.80;99.90
36186;DHT22;22228;53.222;7.446;2023-07-31T13:26:07;18.60;99.90
36186;DHT22;22228;53.222;7.446;2023-07-31T13:28:28;18.50;99.90
36186;DHT22;22228;53.222;7.446;2023-07-31T13:30:50;18.50;99.90
36186;DHT22;22228;53.222;7.446;2023-07-31T13:33:10;18.50;99.90
36186;DHT22;22228;53.222;7.446;2023-07-31T13:35:31;18.50;99.90
36186;DHT22;22228;53.222;7.446;2023-07-31T13:37:51;18.50;99.90
36186;DHT22;22228;53.222;7.446;2023-07-31T13:40:15;18.40;99.90
36186;DHT22;22228;53.222;7.446;2023-07-31T13:42:37;18.40;99.90
36186;DHT22;22228;53.222;7.446;2023-07-31T13:44:58;18.40;99.90
36186;DHT22;22228;53.222;7.446;2023-07-31T13:47:21;18.40;99.90
36186;DHT22;22228;53.222;7.446;2023-07-31T13:49:41;18.40;99.90
36186;DHT22;22228;53.222;7.446;2023-07-31T13:52:03;18.40;99.90
36186;DHT22;22228;53.222;7.446;2023-07-31T13:54:24;18.30;99.90
36186;DHT22;22228;53.222;7.446;2023-07-31T13:56:45;18.30;99.90
36186;DHT22;22228;53.222;7.446;2023-07-31T13:59:06;18.30;99.90
36186;DHT22;22228;53.222;7.446;2023-07-31T14:01:27;18.20;99.90
36186;DHT22;22228;53.222;7.446;2023-07-31T14:03:49;18.20;99.90
36186;DHT22;22228;53.222;7.446;2023-07-31T14:06:10;18.20;99.90
36186;DHT22;22228;53.222;7.446;2023-07-31T14:08:31;18.30;99.90
36186;DHT22;22228;53.222;7.446;2023-07-31T14:10:51;18.30;99.90
36186;DHT22;22228;53.222;7.446;2023-07-31T14:13:12;18.20;99.90
36186;DHT22;22228;53.222;7.446;2023-07-31T14:15:36;18.30;99.90
36186;DHT22;22228;53.222;7.446;2023-07-31T14:17:57;18.40;99.90
36186;DHT22;22228;53.222;7.446;2023-07-31T14:20:19;18.50;99.90
36186;DHT22;22228;53.222;7.446;2023-07-31T14:22:39;18.70;99.90
36186;DHT22;22228;53.222;7.446;2023-07-31T14:25:00;19.10;99.90
36186;DHT22;22228;53.222;7.446;2023-07-31T14:27:20;19.60;99.90
36186;DHT22;22228;53.222;7.446;2023-07-31T14:29:41;19.90;99.90
36186;DHT22;22228;53.222;7.446;2023-07-31T14:32:02;20.10;99.90
36186;DHT22;22228;53.222;7.446;2023-07-31T14:34:24;20.00;99.90
36186;DHT22;22228;53.222;7.446;2023-07-31T14:36:46;20.00;99.90
36186;DHT22;22228;53.222;7.446;2023-07-31T14:39:06;19.90;99.90
36186;DHT22;22228;53.222;7.446;2023-07-31T14:41:27;19.90;99.90
36186;DHT22;22228;53.222;7.446;2023-07-31T14:43:47;19.90;99.90
36186;DHT22;22228;53.222;7.446;2023-07-31T14:46:07;19.90;99.90
36186;DHT22;22228;53.222;7.446;2023-07-31T14:48:28;19.80;99.90
36186;DHT22;22228;53.222;7.446;2023-07-31T14:50:49;19.80;99.90
36186;DHT22;22228;53.222;7.446;2023-07-31T14:53:11;19.80;99.90
36186;DHT22;22228;53.222;7.446;2023-07-31T14:55:32;19.70;99.90
36186;DHT22;22228;53.222;7.446;2023-07-31T14:57:53;19.70;99.90
36186;DHT22;22228;53.222;7.446;2023-07-31T15:00:14;19.80;99.90
36186;DHT22;22228;53.222;7.446;2023-07-31T15:02:34;19.80;99.90
36186;DHT22;22228;53.222;7.446;2023-07-31T15:04:55;19.80;99.90
36186;DHT22;22228;53.222;7.446;2023-07-31T15:07:17;19.70;99.90
36186;DHT22;22228;53.222;7.446;2023-07-31T15:09:39;19.60;99.90
36186;DHT22;22228;53.222;7.446;2023-07-31T15:11:59;19.70;99.90
36186;DHT22;22228;53.222;7.446;2023-07-31T15:14:20;19.80;99.90
36186;DHT22;22228;53.222;7.446;2023-07-31T15:16:40;19.80;99.90
36186;DHT22;22228;53.222;7.446;2023-07-31T15:19:01;19.90;99.90
36186;DHT22;22228;53.222;7.446;2023-07-31T15:21:21;19.80;99.90
36186;DHT22;22228;53.222;7.446;2023-07-31T15:23:42;19.80;99.90
36186;DHT22;22228;53.222;7.446;2023-07-31T15:26:04;19.80;99.90
36186;DHT22;22228;53.222;7.446;2023-07-31T15:28:26;19.90;99.90
36186;DHT22;22228;53.222;7.446;2023-07-31T15:30:46;19.90;99.90
36186;DHT22;22228;53.222;7.446;2023-07-31T15:33:08;19.80;99.90
36186;DHT22;22228;53.222;7.446;2023-07-31T15:35:28;19.80;99.90
36186;DHT22;22228;53.222;7.446;2023-07-31T15:37:49;19.70;99.90
36186;DHT22;22228;53.222;7.446;2023-07-31T15:40:10;19.70;99.90
36186;DHT22;22228;53.222;7.446;2023-07-31T15:42:32;19.70;99.90
36186;DHT22;22228;53.222;7.446;2023-07-31T15:44:56;19.70;99.90
36186;DHT22;22228;53.222;7.446;2023-07-31T15:47:17;19.70;99.90
36186;DHT22;22228;53.222;7.446;2023-07-31T15:49:38;19.60;99.90
36186;DHT22;22228;53.222;7.446;2023-07-31T15:51:58;19.70;99.90
36186;DHT22;22228;53.222;7.446;2023-07-31T15:54:18;19.60;99.90
36186;DHT22;22228;53.222;7.446;2023-07-31T15:56:39;19.60;99.90
36186;DHT22;22228;53.222;7.446;2023-07-31T15:59:01;19.60;99.90
36186;DHT22;22228;53.222;7.446;2023-07-31T16:01:21;19.60;99.90
36186;DHT22;22228;53.222;7.446;2023-07-31T16:03:42;19.50;99.90
36186;DHT22;22228;53.222;7.446;2023-07-31T16:06:02;19.50;99.90
36186;DHT22;22228;53.222;7.446;2023-07-31T16:08:23;19.50;99.90
36186;DHT22;22228;53.222;7.446;2023-07-31T16:10:43;19.50;99.90
36186;DHT22;22228;53.222;7.446;2023-07-31T16:13:04;19.50;99.90
36186;DHT22;22228;53.222;7.446;2023-07-31T16:15:26;19.40;99.90
36186;DHT22;22228;53.222;7.446;2023-07-31T16:17:46;19.40;99.90
36186;DHT22;22228;53.222;7.446;2023-07-31T16:20:07;19.40;99.90
36186;DHT22;22228;53.222;7.446;2023-07-31T16:22:28;19.40;99.90
36186;DHT22;22228;53.222;7.446;2023-07-31T16:24:48;19.40;99.90
36186;DHT22;22228;53.222;7.446;2023-07-31T16:27:08;19.40;99.90
36186;DHT22;22228;53.222;7.446;2023-07-31T16:29:29;19.40;99.90
36186;DHT22;22228;53.222;7.446;2023-07-31T16:31:51;19.40;99.90
36186;DHT22;22228;53.222;7.446;2023-07-31T16:34:12;19.40;99.90
36186;DHT22;22228;53.222;7.446;2023-07-31T16:36:32;19.40;99.90
36186;DHT22;22228;53.222;7.446;2023-07-31T16:38:53;19.40;99.90
36186;DHT22;22228;53.222;7.446;2023-07-31T16:41:13;19.30;99.90
36186;DHT22;22228;53.222;7.446;2023-07-31T16:43:34;19.30;99.90
36186;DHT22;22228;53.222;7.446;2023-07-31T16:45:55;19.20;99.90
36186;DHT22;22228;53.222;7.446;2023-07-31T16:48:16;19.10;99.90
36186;DHT22;22228;53.222;7.446;2023-07-31T16:50:37;19.10;99.90
36186;DHT22;22228;53.222;7.446;2023-07-31T16:52:57;19.10;99.90
36186;DHT22;22228;53.222;7.446;2023-07-31T16:55:18;19.10;99.90
36186;DHT22;22228;53.222;7.446;2023-07-31T16:57:38;19.10;99.90
36186;DHT22;22228;53.222;7.446;2023-07-31T16:59:59;19.10;99.90
36186;DHT22;22228;53.222;7.446;2023-07-31T17:02:19;19.10;99.90
36186;DHT22;22228;53.222;7.446;2023-07-31T17:04:41;19.20;99.90
36186;DHT22;22228;53.222;7.446;2023-07-31T17:07:02;19.20;99.90
36186;DHT22;22228;53.222;7.446;2023-07-31T17:09:23;19.20;99.90
36186;DHT22;22228;53.222;7.446;2023-07-31T17:11:43;19.20;99.90
36186;DHT22;22228;53.222;7.446;2023-07-31T17:14:04;19.20;99.90
36186;DHT22;22228;53.222;7.446;2023-07-31T17:16:25;19.20;99.90
36186;DHT22;22228;53.222;7.446;2023-07-31T17:18:48;19.20;99.90
36186;DHT22;22228;53.222;7.446;2023-07-31T17:21:10;19.20;99.90
36186;DHT22;22228;53.222;7.446;2023-07-31T17:23:31;19.10;99.90
36186;DHT22;22228;53.222;7.446;2023-07-31T17:25:51;19.00;99.90
36186;DHT22;22228;53.222;7.446;2023-07-31T17:28:12;19.00;99.90
36186;DHT22;22228;53.222;7.446;2023-07-31T17:30:32;18.90;99.90
36186;DHT22;22228;53.222;7.446;2023-07-31T17:32:53;18.80;99.90
36186;DHT22;22228;53.222;7.446;2023-07-31T17:35:14;18.80;99.90
36186;DHT22;22228;53.222;7.446;2023-07-31T17:37:35;18.70;99.90